Time;durP1;ratioP1;P1;durP2;ratioP2;P2;SDS_P1;SDS_P2;PMS_P1;PMS_P2;Temp;Humidity;BMP_temperature;BMP_pressure;BME280_temperature;BME280_humidity;BME280_pressure;Samples;Min_cycle;Max_cycle;Signal;HPM_P1;HPM_P2
2022/07/25 00:02:02;;;;;;;;;;;;;;;24.21;81.21;97041.98;601508;236;64901;-74
2022/07/25 00:04:30;;;;;;;;;;;;;;;24.20;81.13;97033.12;601524;236;66396;-64
2022/07/25 00:06:57;;;;;;;;;;;;;;;24.20;81.07;97038.50;601569;236;66419;-64
2022/07/25 00:09:25;;;;;;;;;;;;;;;24.21;81.12;97033.92;601538;236;62658;-64
2022/07/25 00:11:52;;;;;;;;;;;;;;;24.21;81.16;97034.72;601526;236;66509;-64
2022/07/25 00:14:20;;;;;;;;;;;;;;;24.21;81.08;97034.72;601490;236;68711;-64
2022/07/25 00:16:47;;;;;;;;;;;;;;;24.23;81.13;97031.75;601529;236;64889;-64
2022/07/25 00:19:15;;;;;;;;;;;;;;;24.22;81.08;97030.14;601553;236;68604;-64
2022/07/25 00:21:42;;;;;;;;;;;;;;;24.22;81.12;97030.93;601546;236;68303;-64
2022/07/25 00:24:10;;;;;;;;;;;;;;;24.22;81.21;97019.39;601508;236;65202;-64
2022/07/25 00:26:38;;;;;;;;;;;;;;;24.21;81.20;97017.81;601510;236;68806;-64
2022/07/25 00:29:06;;;;;;;;;;;;;;;24.20;81.29;97017.02;601460;236;69841;-63
2022/07/25 00:31:33;;;;;;;;;;;;;;;24.21;81.23;97018.60;601567;236;65034;-63
2022/07/25 00:34:01;;;;;;;;;;;;;;;24.22;81.30;97008.66;601517;236;68671;-63
2022/07/25 00:36:29;;;;;;;;;;;;;;;24.22;81.32;97014.81;601517;236;68640;-63
2022/07/25 00:38:56;;;;;;;;;;;;;;;24.23;81.29;97016.44;601506;236;65117;-63
2022/07/25 00:41:24;;;;;;;;;;;;;;;24.21;81.30;97002.49;601497;236;68790;-63
2022/07/25 00:43:51;;;;;;;;;;;;;;;24.21;81.26;96993.64;601563;236;68569;-63
2022/07/25 00:46:19;;;;;;;;;;;;;;;24.21;81.38;97005.17;601525;236;65844;-63
2022/07/25 00:48:47;;;;;;;;;;;;;;;24.23;81.26;97005.69;601524;236;68359;-63
2022/07/25 00:51:15;;;;;;;;;;;;;;;24.22;81.33;96992.55;601511;236;68765;-63
2022/07/25 00:53:43;;;;;;;;;;;;;;;24.21;81.40;96994.44;601490;236;64880;-63
2022/07/25 00:56:10;;;;;;;;;;;;;;;24.23;81.21;96996.84;600646;236;69875;-63
2022/07/25 00:58:37;;;;;;;;;;;;;;;24.22;81.32;96995.23;599761;236;68739;-63
2022/07/25 01:01:05;;;;;;;;;;;;;;;24.23;81.26;96992.27;599750;236;64863;-63
2022/07/25 01:03:33;;;;;;;;;;;;;;;24.21;81.37;96985.59;599781;236;68704;-73
2022/07/25 01:06:01;;;;;;;;;;;;;;;24.22;81.29;96989.86;599780;236;66512;-73
2022/07/25 01:08:29;;;;;;;;;;;;;;;24.23;81.35;96983.42;599780;236;64896;-63
2022/07/25 01:10:56;;;;;;;;;;;;;;;24.23;81.35;96983.42;599848;236;68613;-63
2022/07/25 01:13:23;;;;;;;;;;;;;;;24.21;81.42;96986.38;599761;236;66584;-63
2022/07/25 01:15:51;;;;;;;;;;;;;;;24.21;81.40;96978.33;599775;236;65081;-63
2022/07/25 01:18:19;;;;;;;;;;;;;;;24.21;81.42;96978.33;599717;236;66360;-63
2022/07/25 01:20:46;;;;;;;;;;;;;;;24.23;81.33;96984.20;599771;236;66431;-63
2022/07/25 01:23:14;;;;;;;;;;;;;;;24.21;81.40;96972.95;599773;236;62745;-63
2022/07/25 01:25:41;;;;;;;;;;;;;;;24.23;81.43;96980.73;599771;236;66467;-63
2022/07/25 01:28:09;;;;;;;;;;;;;;;24.24;81.40;96979.62;599753;236;66489;-63
2022/07/25 01:30:36;;;;;;;;;;;;;;;24.22;81.37;96979.12;599764;236;64930;-73
2022/07/25 01:33:04;;;;;;;;;;;;;;;24.23;81.36;96980.73;599777;236;69610;-73
2022/07/25 01:35:31;;;;;;;;;;;;;;;24.25;81.41;96973.16;599835;236;68374;-73
2022/07/25 01:37:59;;;;;;;;;;;;;;;24.24;81.52;96976.94;599770;236;65013;-73
2022/07/25 01:40:26;;;;;;;;;;;;;;;24.22;81.47;96971.06;599794;236;66467;-73
2022/07/25 01:42:54;;;;;;;;;;;;;;;24.23;81.45;96975.36;599775;236;69049;-73
2022/07/25 01:45:21;;;;;;;;;;;;;;;24.24;81.51;96963.52;599786;236;65242;-73
2022/07/25 01:47:49;;;;;;;;;;;;;;;24.24;81.50;96968.89;599841;236;68610;-72
2022/07/25 01:50:16;;;;;;;;;;;;;;;24.21;81.49;96962.22;599750;236;66665;-73
2022/07/25 01:52:44;;;;;;;;;;;;;;;24.23;81.54;96957.36;599782;236;62668;-73
2022/07/25 01:55:12;;;;;;;;;;;;;;;24.23;81.50;96961.94;599718;236;68652;-73
2022/07/25 01:57:40;;;;;;;;;;;;;;;24.23;81.56;96959.25;599787;236;68677;-73
2022/07/25 02:00:09;;;;;;;;;;;;;;;24.23;81.62;96959.25;599859;236;65039;-73
2022/07/25 02:02:40;;;;;;;;;;;;;;;24.24;81.56;96958.15;599866;236;39332;-74
2022/07/25 02:05:08;;;;;;;;;;;;;;;24.24;81.60;96950.09;599774;236;66659;-74
2022/07/25 02:07:35;;;;;;;;;;;;;;;24.23;81.53;96957.36;599780;236;65291;-74
2022/07/25 02:10:05;;;;;;;;;;;;;;;24.24;81.63;96952.78;599789;236;69020;-73
2022/07/25 02:12:33;;;;;;;;;;;;;;;24.24;81.63;96947.41;599784;236;66724;-74
2022/07/25 02:15:00;;;;;;;;;;;;;;;24.23;81.59;96945.83;599813;236;65317;-74
2022/07/25 02:17:28;;;;;;;;;;;;;;;24.24;81.69;96944.72;599775;236;66445;-74
2022/07/25 02:19:55;;;;;;;;;;;;;;;24.23;81.71;96945.83;599787;236;68862;-74
2022/07/25 02:22:23;;;;;;;;;;;;;;;24.24;81.70;96950.09;599774;236;64979;-74
2022/07/25 02:24:50;;;;;;;;;;;;;;;24.22;81.62;96953.05;599803;236;68659;-74
2022/07/25 02:27:18;;;;;;;;;;;;;;;24.24;81.64;96947.41;599814;236;68612;-74
2022/07/25 02:29:45;;;;;;;;;;;;;;;24.23;81.62;96940.45;599786;236;65084;-73
2022/07/25 02:32:13;;;;;;;;;;;;;;;24.23;81.65;96940.45;599752;236;68845;-64
2022/07/25 02:34:41;;;;;;;;;;;;;;;24.24;81.71;96952.78;599775;236;68749;-64
2022/07/25 02:37:08;;;;;;;;;;;;;;;24.24;81.79;96947.41;599770;236;64910;-64
2022/07/25 02:39:36;;;;;;;;;;;;;;;24.25;81.79;96951.67;599835;236;68955;-64
2022/07/25 02:42:05;;;;;;;;;;;;;;;24.23;81.79;96951.98;599576;236;68737;-64
2022/07/25 02:44:34;;;;;;;;;;;;;;;24.24;81.77;96947.41;599761;236;64890;-64
2022/07/25 02:47:01;;;;;;;;;;;;;;;24.24;81.75;96947.41;599775;236;68671;-64
2022/07/25 02:49:29;;;;;;;;;;;;;;;24.23;81.69;96957.36;599812;236;68392;-64
2022/07/25 02:51:56;;;;;;;;;;;;;;;24.24;81.70;96958.15;599820;236;64773;-74
2022/07/25 02:54:26;;;;;;;;;;;;;;;24.24;81.72;96964.31;599814;236;48499;-73
2022/07/25 02:56:53;;;;;;;;;;;;;;;24.24;81.77;96964.31;601042;236;66780;-73
2022/07/25 02:59:21;;;;;;;;;;;;;;;24.24;81.75;96956.25;601547;236;62726;-73
2022/07/25 03:01:48;;;;;;;;;;;;;;;24.23;81.69;96957.36;601488;236;68982;-73
2022/07/25 03:04:16;;;;;;;;;;;;;;;24.23;81.59;96957.36;601584;236;68597;-73
2022/07/25 03:06:43;;;;;;;;;;;;;;;24.24;81.61;96961.63;601584;236;64912;-73
2022/07/25 03:09:11;;;;;;;;;;;;;;;24.24;81.60;96955.46;601491;236;68753;-73
2022/07/25 03:11:39;;;;;;;;;;;;;;;24.24;81.70;96963.52;601507;236;66424;-73
2022/07/25 03:14:08;;;;;;;;;;;;;;;24.24;81.72;96963.52;601560;236;62713;-73
2022/07/25 03:16:35;;;;;;;;;;;;;;;24.23;81.68;96954.67;601328;235;66165;-73
2022/07/25 03:19:03;;;;;;;;;;;;;;;24.24;81.69;96955.46;601555;236;66378;-73
2022/07/25 03:21:30;;;;;;;;;;;;;;;24.25;81.67;96965.10;601482;236;63791;-74
2022/07/25 03:23:58;;;;;;;;;;;;;;;24.24;81.72;96963.52;601499;236;68846;-73
2022/07/25 03:26:25;;;;;;;;;;;;;;;24.22;81.74;96960.32;601503;236;66439;-73
2022/07/25 03:28:53;;;;;;;;;;;;;;;24.24;81.67;96950.09;601538;236;62736;-73
2022/07/25 03:31:20;;;;;;;;;;;;;;;24.24;81.70;96952.78;601578;236;66476;-73
2022/07/25 03:33:48;;;;;;;;;;;;;;;24.24;81.77;96940.14;601485;236;68496;-73
2022/07/25 03:36:15;;;;;;;;;;;;;;;24.25;81.71;96943.62;601548;236;62702;-74
2022/07/25 03:38:43;;;;;;;;;;;;;;;24.25;81.68;96948.98;601526;236;68629;-73
2022/07/25 03:41:11;;;;;;;;;;;;;;;24.23;81.63;96938.56;601518;236;68401;-73
2022/07/25 03:43:39;;;;;;;;;;;;;;;24.23;81.57;96943.93;601586;236;64896;-73
2022/07/25 03:46:06;;;;;;;;;;;;;;;24.25;81.60;96948.98;601521;236;66355;-73
2022/07/25 03:48:34;;;;;;;;;;;;;;;24.24;81.61;96945.52;601561;235;66204;-73
2022/07/25 03:51:01;;;;;;;;;;;;;;;24.24;81.70;96948.20;601507;236;62808;-73
2022/07/25 03:53:29;;;;;;;;;;;;;;;24.24;81.70;96942.04;601542;236;68269;-73
2022/07/25 03:55:56;;;;;;;;;;;;;;;24.24;81.71;96948.20;600844;236;66313;-73
2022/07/25 03:58:24;;;;;;;;;;;;;;;24.24;81.74;96950.09;599806;236;62700;-73
2022/07/25 04:00:51;;;;;;;;;;;;;;;24.24;81.74;96952.78;599772;236;66184;-73
2022/07/25 04:03:19;;;;;;;;;;;;;;;24.24;81.74;96942.04;599800;236;66253;-73
2022/07/25 04:05:46;;;;;;;;;;;;;;;24.24;81.72;96936.67;599763;236;64912;-73
2022/07/25 04:08:14;;;;;;;;;;;;;;;24.24;81.72;96942.04;599823;236;68646;-73
2022/07/25 04:10:42;;;;;;;;;;;;;;;24.23;81.75;96943.93;599739;236;68914;-73
2022/07/25 04:13:09;;;;;;;;;;;;;;;24.24;81.90;96944.72;599774;236;64916;-73
2022/07/25 04:15:37;;;;;;;;;;;;;;;24.22;82.06;96936.16;599763;236;68693;-73
2022/07/25 04:18:04;;;;;;;;;;;;;;;24.23;81.97;96941.24;599762;236;68485;-73
2022/07/25 04:20:32;;;;;;;;;;;;;;;24.24;81.87;96939.35;599769;236;62523;-73
2022/07/25 04:22:59;;;;;;;;;;;;;;;24.23;81.83;96945.83;599787;236;66555;-73
2022/07/25 04:25:27;;;;;;;;;;;;;;;24.24;81.80;96937.45;599775;236;68897;-73
2022/07/25 04:27:54;;;;;;;;;;;;;;;24.24;81.72;96942.83;599810;236;64867;-73
2022/07/25 04:30:22;;;;;;;;;;;;;;;24.23;81.75;96946.61;599774;236;66170;-73
2022/07/25 04:32:49;;;;;;;;;;;;;;;24.24;81.79;96948.20;599716;236;66479;-73
2022/07/25 04:35:17;;;;;;;;;;;;;;;24.24;81.79;96950.09;599797;236;65238;-73
2022/07/25 04:37:44;;;;;;;;;;;;;;;24.24;81.77;96947.41;599777;236;70054;-72
2022/07/25 04:40:12;;;;;;;;;;;;;;;24.25;81.72;96954.36;599768;236;66426;-73
2022/07/25 04:42:40;;;;;;;;;;;;;;;24.24;81.71;96952.78;599773;236;62960;-73
2022/07/25 04:45:08;;;;;;;;;;;;;;;24.24;81.72;96956.25;599735;236;69422;-73
2022/07/25 04:47:35;;;;;;;;;;;;;;;24.25;81.78;96959.73;599821;236;68648;-73
2022/07/25 04:50:03;;;;;;;;;;;;;;;24.24;81.86;96958.15;599793;236;64881;-73
2022/07/25 04:52:30;;;;;;;;;;;;;;;24.24;81.79;96963.52;599774;236;68719;-73
2022/07/25 04:54:58;;;;;;;;;;;;;;;24.24;81.77;96964.31;599760;236;68676;-73
2022/07/25 04:57:25;;;;;;;;;;;;;;;24.24;81.85;96958.94;599772;236;64976;-73
2022/07/25 04:59:53;;;;;;;;;;;;;;;24.24;81.90;96961.63;599760;236;68637;-73
2022/07/25 05:02:21;;;;;;;;;;;;;;;24.23;81.84;96961.94;599762;236;68641;-73
2022/07/25 05:04:48;;;;;;;;;;;;;;;24.24;81.82;96960.83;599759;236;66053;-64
2022/07/25 05:07:16;;;;;;;;;;;;;;;24.24;81.79;96968.89;599806;236;68651;-64
2022/07/25 05:09:44;;;;;;;;;;;;;;;24.25;81.84;96960.52;599787;236;68798;-64
2022/07/25 05:12:12;;;;;;;;;;;;;;;24.24;81.84;96969.69;599804;236;65034;-64
2022/07/25 05:14:39;;;;;;;;;;;;;;;24.24;81.83;96966.20;599793;236;68992;-64
2022/07/25 05:17:07;;;;;;;;;;;;;;;24.25;81.79;96979.32;599795;236;66172;-63
2022/07/25 05:19:34;;;;;;;;;;;;;;;24.24;81.79;96975.05;599761;236;62775;-63
2022/07/25 05:22:03;;;;;;;;;;;;;;;24.24;81.84;96975.05;599546;236;68925;-64
2022/07/25 05:24:34;;;;;;;;;;;;;;;24.24;81.82;96968.89;599809;236;69160;-64
2022/07/25 05:27:02;;;;;;;;;;;;;;;24.25;81.79;96968.58;599814;236;65023;-64
2022/07/25 05:29:30;;;;;;;;;;;;;;;24.25;81.79;96965.10;599721;236;68680;-64
2022/07/25 05:31:57;;;;;;;;;;;;;;;24.25;81.87;96963.20;599706;236;68781;-64
2022/07/25 05:34:25;;;;;;;;;;;;;;;24.24;81.92;96969.69;599775;236;64923;-64
2022/07/25 05:36:52;;;;;;;;;;;;;;;24.24;81.88;96961.63;599828;236;68854;-64
2022/07/25 05:39:20;;;;;;;;;;;;;;;24.25;81.88;96965.10;599506;236;68580;-64
2022/07/25 05:41:47;;;;;;;;;;;;;;;24.25;81.94;96982.01;599733;236;64873;-64
2022/07/25 05:44:15;;;;;;;;;;;;;;;24.25;81.89;96981.21;599816;236;65954;-64
2022/07/25 05:46:42;;;;;;;;;;;;;;;24.25;81.91;96970.47;599809;236;68710;-64
2022/07/25 05:49:10;;;;;;;;;;;;;;;24.24;81.97;96974.26;599815;236;64931;-64
2022/07/25 05:51:37;;;;;;;;;;;;;;;24.25;82.02;96978.53;599654;236;68885;-66
2022/07/25 05:54:05;;;;;;;;;;;;;;;24.25;81.35;96981.21;599709;236;66661;-67
2022/07/25 05:56:32;;;;;;;;;;;;;;;24.25;82.15;96981.21;600880;236;62822;-68
2022/07/25 05:59:00;;;;;;;;;;;;;;;24.25;82.36;96975.84;601551;236;66484;-64
2022/07/25 06:01:27;;;;;;;;;;;;;;;24.24;82.80;96974.26;601535;236;66437;-67
2022/07/25 06:03:55;;;;;;;;;;;;;;;24.23;83.65;96972.67;601570;236;62740;-66
2022/07/25 06:06:24;;;;;;;;;;;;;;;24.25;81.97;96975.84;601525;236;66450;-65
2022/07/25 06:08:52;;;;;;;;;;;;;;;24.25;81.84;96975.84;601492;236;66432;-65
2022/07/25 06:11:19;;;;;;;;;;;;;;;24.21;80.53;96964.91;601542;236;62645;-66
2022/07/25 06:13:47;;;;;;;;;;;;;;;24.24;81.85;96968.89;601497;236;66477;-66
2022/07/25 06:16:14;;;;;;;;;;;;;;;24.21;80.65;96964.11;601568;236;66333;-65
2022/07/25 06:18:42;;;;;;;;;;;;;;;24.24;80.84;96974.26;601508;236;65978;-65
2022/07/25 06:21:09;;;;;;;;;;;;;;;24.24;81.64;96969.69;601366;236;68721;-67
2022/07/25 06:23:37;;;;;;;;;;;;;;;24.23;79.84;96972.67;601533;236;68540;-66
2022/07/25 06:26:06;;;;;;;;;;;;;;;24.26;81.44;96969.40;601500;236;62512;-66
2022/07/25 06:28:35;;;;;;;;;;;;;;;24.26;81.53;96978.25;601553;236;66535;-65
2022/07/25 06:31:02;;;;;;;;;;;;;;;24.27;81.67;96979.04;601544;236;68292;-69
2022/07/25 06:33:30;;;;;;;;;;;;;;;24.29;80.41;96971.50;601475;236;62769;-66
2022/07/25 06:35:58;;;;;;;;;;;;;;;24.33;77.84;96975.17;601503;236;69176;-67
2022/07/25 06:38:25;;;;;;;;;;;;;;;24.35;77.42;96981.06;601493;236;66714;-65
2022/07/25 06:40:53;;;;;;;;;;;;;;;24.34;79.86;96968.73;601555;236;62665;-64
2022/07/25 06:43:20;;;;;;;;;;;;;;;24.32;80.90;96970.91;601545;236;68910;-65
2022/07/25 06:45:51;;;;;;;;;;;;;;;24.31;81.72;96972.80;601540;236;66382;-65
2022/07/25 06:48:18;;;;;;;;;;;;;;;24.30;82.06;96973.08;598996;236;64904;-64
2022/07/25 06:50:46;;;;;;;;;;;;;;;24.30;82.42;96970.39;596963;237;68684;-64
2022/07/25 06:53:15;;;;;;;;;;;;;;;24.30;82.23;96965.02;597050;237;68509;-66
2022/07/25 06:55:44;;;;;;;;;;;;;;;24.29;82.26;96974.97;595994;237;65215;-67
2022/07/25 06:58:12;;;;;;;;;;;;;;;24.30;82.30;96967.71;593541;239;66315;-66
2022/07/25 07:00:39;;;;;;;;;;;;;;;24.29;82.39;96966.92;593504;239;66486;-66
2022/07/25 07:03:07;;;;;;;;;;;;;;;24.30;82.42;96970.39;593545;239;65066;-67
2022/07/25 07:05:38;;;;;;;;;;;;;;;24.30;82.45;96973.08;593540;239;68891;-65
2022/07/25 07:08:07;;;;;;;;;;;;;;;24.30;82.26;96973.08;593555;238;47070;-63
2022/07/25 07:10:35;;;;;;;;;;;;;;;24.29;82.21;96966.92;593581;239;65224;-63
2022/07/25 07:13:09;;;;;;;;;;;;;;;24.30;82.40;96973.08;593546;239;68658;-65
2022/07/25 07:15:37;;;;;;;;;;;;;;;24.31;82.14;96969.33;593530;239;68579;-66
2022/07/25 07:18:06;;;;;;;;;;;;;;;24.31;82.17;96970.11;593508;239;65097;-66
2022/07/25 07:20:33;;;;;;;;;;;;;;;24.31;82.41;96969.33;593616;239;68822;-66
2022/07/25 07:23:01;;;;;;;;;;;;;;;24.31;82.85;96970.11;593473;239;68612;-66
2022/07/25 07:25:29;;;;;;;;;;;;;;;24.30;82.96;96963.12;593526;239;62749;-66
2022/07/25 07:27:57;;;;;;;;;;;;;;;24.31;83.06;96969.33;593478;239;67418;-67
2022/07/25 07:30:25;;;;;;;;;;;;;;;24.31;83.16;96972.01;593407;239;66462;-74
2022/07/25 07:32:53;;;;;;;;;;;;;;;24.31;83.02;96969.33;593500;239;63056;-73
2022/07/25 07:35:20;;;;;;;;;;;;;;;24.30;82.86;96968.50;593552;239;66444;-74
2022/07/25 07:37:48;;;;;;;;;;;;;;;24.32;82.83;96968.22;593536;239;69636;-72
2022/07/25 07:40:16;;;;;;;;;;;;;;;24.32;82.74;96973.59;593544;239;65099;-73
2022/07/25 07:42:44;;;;;;;;;;;;;;;24.36;78.68;96966.53;593521;239;66469;-69
2022/07/25 07:45:12;;;;;;;;;;;;;;;24.39;77.84;96965.97;593583;239;68956;-76
2022/07/25 07:47:40;;;;;;;;;;;;;;;24.40;78.52;96964.07;593633;239;63866;-74
2022/07/25 07:50:09;;;;;;;;;;;;;;;24.38;78.97;96969.72;593592;239;68712;-73
2022/07/25 07:52:36;;;;;;;;;;;;;;;24.38;78.67;96973.20;593534;239;68722;-76
2022/07/25 07:57:50;;;;;;;;;;;;;;;24.40;76.32;96967.55;593603;239;68385;-76
2022/07/25 08:00:18;;;;;;;;;;;;;;;24.42;78.92;96973.44;593620;239;68349;-76
2022/07/25 08:02:48;;;;;;;;;;;;;;;24.41;80.03;96979.09;593558;238;42623;-77
2022/07/25 08:05:22;;;;;;;;;;;;;;;24.40;79.44;96977.50;593562;239;69393;-77
2022/07/25 08:07:50;;;;;;;;;;;;;;;24.39;80.79;96976.71;593561;239;68594;-77
2022/07/25 08:10:22;;;;;;;;;;;;;;;24.38;80.62;96975.09;593583;239;65029;-77
2022/07/25 08:12:50;;;;;;;;;;;;;;;24.39;79.70;96974.02;593312;238;68443;-77
2022/07/25 08:15:18;;;;;;;;;;;;;;;24.38;79.48;96977.78;593557;239;68515;-77
2022/07/25 08:17:46;;;;;;;;;;;;;;;24.38;78.22;96975.89;593483;239;63571;-76
2022/07/25 08:20:14;;;;;;;;;;;;;;;24.38;78.88;96975.89;593536;239;66884;-77
2022/07/25 08:22:43;;;;;;;;;;;;;;;24.39;77.52;96974.02;593511;239;68637;-76
2022/07/25 08:25:12;;;;;;;;;;;;;;;24.41;75.38;96971.03;593516;239;64914;-74
2022/07/25 08:27:39;;;;;;;;;;;;;;;24.42;75.39;96970.75;593600;239;67506;-76
2022/07/25 08:30:07;;;;;;;;;;;;;;;24.43;75.50;96975.02;593458;239;68475;-77
2022/07/25 08:32:36;;;;;;;;;;;;;;;24.43;76.33;96969.64;593519;239;64978;-74
2022/07/25 08:35:04;;;;;;;;;;;;;;;24.45;75.95;96969.39;593288;238;66370;-76
2022/07/25 08:37:32;;;;;;;;;;;;;;;24.43;76.38;96968.85;593534;239;69532;-72
2022/07/25 08:39:59;;;;;;;;;;;;;;;24.45;74.85;96972.08;593568;239;65013;-73
2022/07/25 08:42:27;;;;;;;;;;;;;;;24.47;75.37;96969.88;593581;239;69493;-70
2022/07/25 08:44:56;;;;;;;;;;;;;;;24.47;73.48;96976.06;593510;239;66326;-74
2022/07/25 08:47:24;;;;;;;;;;;;;;;24.50;74.74;96972.79;593271;238;62765;-76
2022/07/25 08:49:51;;;;;;;;;;;;;;;24.48;79.48;96961.53;593564;239;66680;-75
2022/07/25 08:52:19;;;;;;;;;;;;;;;24.44;77.42;96963.20;593530;239;68553;-73
2022/07/25 08:54:47;;;;;;;;;;;;;;;24.45;75.65;96967.50;593588;239;64898;-72
2022/07/25 08:57:14;;;;;;;;;;;;;;;24.45;79.69;96964.02;596752;237;68734;-66
2022/07/25 08:59:42;;;;;;;;;;;;;;;24.44;80.33;96971.26;597076;237;68395;-67
2022/07/25 09:02:16;;;;;;;;;;;;;;;24.42;76.08;96976.13;597047;237;65122;-64
2022/07/25 09:04:43;;;;;;;;;;;;;;;24.46;75.02;96968.30;597063;237;66567;-63
2022/07/25 09:07:11;;;;;;;;;;;;;;;24.47;75.17;96973.38;597074;237;66775;-64
2022/07/25 09:09:39;;;;;;;;;;;;;;;24.48;73.90;96971.48;597043;237;65112;-65
2022/07/25 09:12:06;;;;;;;;;;;;;;;24.49;77.86;96965.80;597059;237;68711;-67
2022/07/25 09:14:44;;;;;;;;;;;;;;;24.49;76.54;96962.33;596994;237;66384;-65
2022/07/25 09:17:11;;;;;;;;;;;;;;;24.49;73.32;96962.33;596954;237;65065;-65
2022/07/25 09:19:39;;;;;;;;;;;;;;;24.50;78.82;96967.42;597025;237;66277;-66
2022/07/25 09:22:07;;;;;;;;;;;;;;;24.47;79.17;96964.50;597068;237;66395;-66
2022/07/25 09:24:35;;;;;;;;;;;;;;;24.45;79.89;96966.70;597033;237;66075;-65
2022/07/25 09:27:04;;;;;;;;;;;;;;;24.44;81.54;96957.03;597065;237;68390;-66
2022/07/25 09:29:33;;;;;;;;;;;;;;;24.41;81.12;96961.08;596836;237;66360;-65
2022/07/25 09:32:01;;;;;;;;;;;;;;;24.41;81.18;96955.70;596372;237;62804;-66
2022/07/25 09:34:33;;;;;;;;;;;;;;;24.40;81.35;96956.80;596147;237;69914;-67
2022/07/25 09:37:01;;;;;;;;;;;;;;;24.40;81.33;96953.33;594726;237;67300;-66
2022/07/25 09:39:32;;;;;;;;;;;;;;;24.40;81.26;96954.13;595774;237;64932;-66
2022/07/25 09:42:00;;;;;;;;;;;;;;;24.39;81.15;96960.59;596190;237;66487;-66
2022/07/25 09:44:31;;;;;;;;;;;;;;;24.40;81.23;96951.44;596963;237;66594;-66
2022/07/25 09:47:00;;;;;;;;;;;;;;;24.40;81.24;96954.13;596969;237;64977;-74
2022/07/25 09:49:29;;;;;;;;;;;;;;;24.38;81.37;96942.86;596740;237;69039;-75
2022/07/25 09:51:56;;;;;;;;;;;;;;;24.40;81.26;96945.27;596703;237;66502;-75
2022/07/25 09:54:23;;;;;;;;;;;;;;;24.40;81.38;96934.53;596975;237;62847;-75
2022/07/25 09:56:51;;;;;;;;;;;;;;;24.40;81.46;96940.69;593841;237;68599;-75
2022/07/25 09:59:19;;;;;;;;;;;;;;;24.39;81.53;96939.11;591749;239;66654;-72
2022/07/25 10:01:48;;;;;;;;;;;;;;;24.41;81.24;96936.11;591814;239;62797;-74
2022/07/25 10:04:17;;;;;;;;;;;;;;;24.43;78.72;96933.94;590745;239;66470;-76
2022/07/25 10:06:49;;;;;;;;;;;;;;;24.44;80.39;96936.34;591721;239;66395;-74
2022/07/25 10:09:17;;;;;;;;;;;;;;;24.43;80.43;96933.94;591790;239;62884;-69
2022/07/25 10:12:04;;;;;;;;;;;;;;;24.43;81.44;96923.19;591884;239;66509;-74
2022/07/25 10:14:33;;;;;;;;;;;;;;;24.42;77.87;96932.32;591801;239;68415;-75
2022/07/25 10:17:00;;;;;;;;;;;;;;;24.46;76.59;96928.00;591515;239;63038;-75
2022/07/25 10:19:47;;;;;;;;;;;;;;;24.46;80.28;96923.41;578903;239;71934;-74
2022/07/25 10:22:15;;;;;;;;;;;;;;;24.45;80.47;96921.84;578705;239;68276;-71
2022/07/25 10:24:46;;;;;;;;;;;;;;;24.44;80.92;96922.91;591588;239;65807;-73
2022/07/25 10:27:15;;;;;;;;;;;;;;;24.44;81.20;96914.06;591864;239;68844;-74
2022/07/25 10:29:43;;;;;;;;;;;;;;;24.43;81.36;96917.81;591546;239;66722;-74
2022/07/25 10:32:12;;;;;;;;;;;;;;;24.42;81.39;96908.97;591844;239;65498;-74
2022/07/25 10:34:39;;;;;;;;;;;;;;;24.43;81.33;96912.45;591872;239;68871;-73
2022/07/25 10:37:14;;;;;;;;;;;;;;;24.43;81.39;96912.45;591789;239;66490;-74
2022/07/25 10:39:47;;;;;;;;;;;;;;;24.43;81.41;96915.92;591900;239;62687;-75
2022/07/25 10:42:13;;;;;;;;;;;;;;;24.43;81.36;96913.23;591702;239;66170;-75
2022/07/25 10:44:45;;;;;;;;;;;;;;;24.44;81.44;96908.69;591811;239;68826;-75
2022/07/25 10:47:13;;;;;;;;;;;;;;;24.43;81.43;96902.49;591833;239;64886;-75
2022/07/25 10:49:42;;;;;;;;;;;;;;;24.43;81.34;96897.13;591803;239;69337;-75
2022/07/25 10:52:17;;;;;;;;;;;;;;;24.44;81.43;96897.94;591800;239;66644;-73
2022/07/25 10:54:55;;;;;;;;;;;;;;;24.44;81.36;96903.31;591842;239;64904;-72
2022/07/25 10:57:22;;;;;;;;;;;;;;;24.44;81.58;96893.36;599404;236;68687;-73
2022/07/25 10:59:49;;;;;;;;;;;;;;;24.44;81.44;96898.73;599632;236;68554;-72
2022/07/25 11:02:17;;;;;;;;;;;;;;;24.45;81.56;96886.91;599516;236;65073;-72
2022/07/25 11:04:47;;;;;;;;;;;;;;;24.43;81.33;96889.06;599572;235;68688;-73
2022/07/25 11:07:17;;;;;;;;;;;;;;;24.44;81.48;96882.61;599362;236;49935;-73
2022/07/25 11:09:44;;;;;;;;;;;;;;;24.45;81.44;96883.44;599616;236;64754;-75
2022/07/25 11:12:15;;;;;;;;;;;;;;;24.44;77.05;96874.55;599538;236;68811;-70
2022/07/25 11:14:43;;;;;;;;;;;;;;;24.49;77.24;96876.36;599633;236;68381;-68
2022/07/25 11:17:15;;;;;;;;;;;;;;;24.49;78.28;96882.53;599625;236;65011;-68
2022/07/25 11:19:44;;;;;;;;;;;;;;;24.50;80.48;96873.39;599575;236;68785;-68
2022/07/25 11:22:12;;;;;;;;;;;;;;;24.49;80.99;96865.62;599562;236;66326;-68
2022/07/25 11:24:43;;;;;;;;;;;;;;;24.47;81.35;96868.62;599606;236;64894;-67
2022/07/25 11:27:12;;;;;;;;;;;;;;;24.47;81.38;96863.25;599571;236;68629;-68
2022/07/25 11:29:40;;;;;;;;;;;;;;;24.48;80.72;96866.72;599586;236;66213;-69
2022/07/25 11:32:09;;;;;;;;;;;;;;;24.47;81.02;96860.56;599537;236;62728;-67
2022/07/25 11:34:38;;;;;;;;;;;;;;;24.48;80.96;96855.98;599533;236;68860;-67
2022/07/25 11:37:06;;;;;;;;;;;;;;;24.48;80.99;96855.98;599570;236;69085;-68
2022/07/25 11:39:35;;;;;;;;;;;;;;;24.49;81.13;96858.34;599623;236;65165;-68
2022/07/25 11:42:07;;;;;;;;;;;;;;;24.48;81.17;96854.08;594681;236;70302;-68
2022/07/25 11:44:39;;;;;;;;;;;;;;;24.48;80.97;96846.02;599607;236;68796;-68
2022/07/25 11:47:07;;;;;;;;;;;;;;;24.49;81.09;96844.92;599573;236;65130;-68
2022/07/25 11:49:45;;;;;;;;;;;;;;;24.48;81.04;96843.34;599599;236;68796;-68
2022/07/25 11:52:23;;;;;;;;;;;;;;;24.49;80.99;96839.55;599577;236;68341;-68
2022/07/25 11:54:52;;;;;;;;;;;;;;;24.49;81.01;96838.75;599610;236;64819;-70
2022/07/25 11:57:20;;;;;;;;;;;;;;;24.49;81.14;96826.11;599621;236;68336;-68
2022/07/25 11:59:48;;;;;;;;;;;;;;;24.49;81.17;96831.48;600374;235;68489;-67
2022/07/25 12:02:22;;;;;;;;;;;;;;;24.49;81.09;96831.48;602067;235;65072;-68
2022/07/25 12:04:53;;;;;;;;;;;;;;;24.49;81.10;96823.42;602125;235;68762;-69
2022/07/25 12:07:21;;;;;;;;;;;;;;;24.50;80.90;96827.72;602214;235;66245;-69
2022/07/25 12:09:57;;;;;;;;;;;;;;;24.50;80.85;96830.41;602164;235;62887;-68
2022/07/25 12:12:25;;;;;;;;;;;;;;;24.51;80.93;96825.83;602133;235;68475;-67
2022/07/25 12:14:52;;;;;;;;;;;;;;;24.51;80.89;96823.14;602166;235;68449;-68
2022/07/25 12:17:20;;;;;;;;;;;;;;;24.51;80.96;96823.94;602066;235;65050;-67
2022/07/25 12:19:47;;;;;;;;;;;;;;;24.50;80.83;96822.36;602175;235;68598;-68
2022/07/25 12:22:15;;;;;;;;;;;;;;;24.50;80.98;96808.92;602147;235;66809;-67
2022/07/25 12:24:42;;;;;;;;;;;;;;;24.51;80.83;96815.87;602083;235;62822;-67
2022/07/25 12:27:10;;;;;;;;;;;;;;;24.51;80.73;96813.19;602099;235;66619;-68
2022/07/25 12:29:37;;;;;;;;;;;;;;;24.52;80.62;96806.71;602075;235;66457;-67
2022/07/25 12:32:05;;;;;;;;;;;;;;;24.52;80.69;96805.92;602068;235;62730;-67
2022/07/25 12:34:32;;;;;;;;;;;;;;;24.52;80.72;96803.23;602174;235;68845;-68
2022/07/25 12:37:00;;;;;;;;;;;;;;;24.52;80.56;96801.34;602112;235;68596;-67
2022/07/25 12:39:28;;;;;;;;;;;;;;;24.52;80.60;96798.66;602135;235;62833;-68
2022/07/25 12:41:55;;;;;;;;;;;;;;;24.54;80.61;96795.67;602140;235;68850;-72
2022/07/25 12:44:23;;;;;;;;;;;;;;;24.54;76.28;96792.99;602050;235;67214;-72
2022/07/25 12:46:51;;;;;;;;;;;;;;;24.58;73.48;96789.42;602164;235;65017;-67
2022/07/25 12:49:19;;;;;;;;;;;;;;;24.61;75.43;96789.89;602135;235;66457;-68
2022/07/25 12:51:46;;;;;;;;;;;;;;;24.61;73.53;96787.20;602068;235;68818;-66
2022/07/25 12:54:14;;;;;;;;;;;;;;;24.67;71.90;96789.50;602045;235;65193;-67
2022/07/25 12:56:42;;;;;;;;;;;;;;;24.66;73.71;96782.52;600420;235;66456;-67